Time,TemperatureF,DewpointF,PressureIn,WindDirection,WindDirectionDegrees,WindSpeedMPH,WindSpeedGustMPH,Humidity,HourlyPrecipIn,Conditions,Clouds,dailyrainin,SoftwareType,DateUTC
2013-09-05 00:01:00,63.7,62.2,30.10,ESE,115,0.0,0.0,95,0.00,,,0.00,WeatherCatV1.20B785,2013-09-05 04:01:00,
2013-09-05 00:06:00,63.5,61.7,30.10,ESE,115,0.0,0.0,94,0.00,,,0.00,WeatherCatV1.20B785,2013-09-05 04:06:00,
2013-09-05 00:11:00,63.4,61.9,30.10,ESE,115,0.0,0.0,95,0.00,,,0.00,WeatherCatV1.20B785,2013-09-05 04:11:00,
2013-09-05 00:16:00,63.3,61.8,30.11,ESE,115,0.0,0.0,95,0.00,,,0.00,WeatherCatV1.20B785,2013-09-05 04:16:00,
2013-09-05 00:21:00,63.2,61.7,30.11,ESE,115,0.0,0.0,95,0.00,,,0.00,WeatherCatV1.20B785,2013-09-05 04:21:00,
2013-09-05 00:26:00,63.0,61.5,30.11,ESE,115,0.0,0.0,95,0.00,,,0.00,WeatherCatV1.20B785,2013-09-05 04:26:00,
2013-09-05 00:31:00,62.8,61.3,30.11,ESE,115,0.0,0.0,95,0.00,,,0.00,WeatherCatV1.20B785,2013-09-05 04:31:00,
2013-09-05 00:36:00,62.6,61.1,30.11,ESE,115,0.0,0.0,95,0.00,,,0.00,WeatherCatV1.20B785,2013-09-05 04:36:00,
2013-09-05 00:41:00,62.6,61.4,30.11,ESE,115,0.0,0.0,96,0.00,,,0.00,WeatherCatV1.20B785,2013-09-05 04:41:00,
2013-09-05 00:46:00,62.6,61.4,30.11,ESE,115,0.0,0.0,96,0.00,,,0.00,WeatherCatV1.20B785,2013-09-05 04:46:00,
2013-09-05 00:51:00,62.6,61.4,30.11,ESE,115,0.0,0.0,96,0.00,,,0.00,WeatherCatV1.20B785,2013-09-05 04:51:00,
2013-09-05 00:56:00,62.6,61.4,30.11,ESE,115,0.0,0.0,96,0.00,,,0.00,WeatherCatV1.20B785,2013-09-05 04:56:00,
2013-09-05 01:01:00,62.5,61.3,30.10,ESE,115,0.0,0.0,96,0.00,,,0.00,WeatherCatV1.20B785,2013-09-05 05:01:00,
2013-09-05 01:06:00,62.4,61.2,30.11,ESE,115,0.0,0.0,96,0.00,,,0.00,WeatherCatV1.20B785,2013-09-05 05:06:00,
2013-09-05 01:11:00,62.4,61.2,30.11,ESE,115,0.0,0.0,96,0.00,,,0.00,WeatherCatV1.20B785,2013-09-05 05:11:00,
2013-09-05 01:16:00,62.3,61.1,30.10,ESE,115,0.0,0.0,96,0.00,,,0.00,WeatherCatV1.20B785,2013-09-05 05:16:00,
2013-09-05 01:21:00,62.3,61.1,30.10,ESE,115,0.0,0.0,96,0.00,,,0.00,WeatherCatV1.20B785,2013-09-05 05:21:00,
2013-09-05 01:26:00,62.1,60.9,30.10,ESE,115,0.0,0.0,96,0.00,,,0.00,WeatherCatV1.20B785,2013-09-05 05:26:00,
2013-09-05 01:31:00,61.9,60.5,30.10,ESE,115,0.0,0.0,95,0.00,,,0.00,WeatherCatV1.20B785,2013-09-05 05:31:00,
2013-09-05 01:36:00,61.8,60.6,30.10,ESE,115,0.0,0.0,96,0.00,,,0.00,WeatherCatV1.20B785,2013-09-05 05:36:00,
2013-09-05 01:41:00,61.8,60.6,30.10,ESE,115,0.0,0.0,96,0.00,,,0.00,WeatherCatV1.20B785,2013-09-05 05:41:00,
2013-09-05 01:46:00,61.7,60.5,30.10,ESE,115,0.0,0.0,96,0.00,,,0.00,WeatherCatV1.20B785,2013-09-05 05:46:00,
2013-09-05 01:51:00,61.4,60.2,30.10,ESE,115,0.0,0.0,96,0.00,,,0.00,WeatherCatV1.20B785,2013-09-05 05:51:00,
2013-09-05 01:56:00,61.3,60.2,30.10,ESE,115,0.0,0.0,96,0.00,,,0.00,WeatherCatV1.20B785,2013-09-05 05:56:00,
2013-09-05 02:01:00,61.2,60.0,30.10,ESE,115,0.0,0.0,96,0.00,,,0.00,WeatherCatV1.20B785,2013-09-05 06:01:00,
2013-09-05 02:06:00,61.1,60.0,30.10,ESE,115,0.0,0.0,96,0.00,,,0.00,WeatherCatV1.20B785,2013-09-05 06:06:00,
2013-09-05 02:11:00,61.2,60.3,30.10,ESE,115,0.0,0.0,97,0.00,,,0.00,WeatherCatV1.20B785,2013-09-05 06:11:00,
2013-09-05 02:16:00,61.1,60.0,30.10,ESE,115,0.0,0.0,96,0.00,,,0.00,WeatherCatV1.20B785,2013-09-05 06:16:00,
2013-09-05 02:21:00,61.0,59.8,30.10,ESE,115,0.0,0.0,96,0.00,,,0.00,WeatherCatV1.20B785,2013-09-05 06:21:00,
2013-09-05 02:26:00,61.0,60.1,30.10,ESE,115,0.0,0.0,97,0.00,,,0.00,WeatherCatV1.20B785,2013-09-05 06:26:00,
2013-09-05 02:31:00,61.1,60.2,30.09,ESE,115,0.0,0.0,97,0.00,,,0.00,WeatherCatV1.20B785,2013-09-05 06:31:00,
2013-09-05 02:36:00,61.1,60.0,30.09,ESE,115,0.0,0.0,96,0.00,,,0.00,WeatherCatV1.20B785,2013-09-05 06:36:00,
2013-09-05 02:41:00,61.2,60.3,30.09,ESE,115,0.0,0.0,97,0.00,,,0.00,WeatherCatV1.20B785,2013-09-05 06:41:00,
2013-09-05 02:46:00,61.1,60.0,30.09,ESE,115,0.0,0.0,96,0.00,,,0.00,WeatherCatV1.20B785,2013-09-05 06:46:00,
2013-09-05 02:51:00,61.0,60.1,30.09,ESE,115,0.0,0.0,97,0.00,,,0.00,WeatherCatV1.20B785,2013-09-05 06:51:00,
2013-09-05 02:56:00,60.9,59.8,30.09,ESE,115,0.0,0.0,96,0.00,,,0.00,WeatherCatV1.20B785,2013-09-05 06:56:00,
2013-09-05 03:01:00,60.7,59.5,30.09,ESE,115,0.0,0.0,96,0.00,,,0.00,WeatherCatV1.20B785,2013-09-05 07:01:00,
2013-09-05 03:06:00,60.6,59.5,30.09,ESE,115,0.0,0.0,96,0.00,,,0.00,WeatherCatV1.20B785,2013-09-05 07:06:00,
2013-09-05 03:11:00,60.6,59.7,30.09,ESE,115,0.0,0.0,97,0.00,,,0.00,WeatherCatV1.20B785,2013-09-05 07:11:00,
2013-09-05 03:16:00,60.6,59.7,30.09,ESE,115,0.0,0.0,97,0.00,,,0.00,WeatherCatV1.20B785,2013-09-05 07:16:00,
2013-09-05 03:21:00,60.7,59.8,30.08,ESE,115,0.0,0.0,97,0.00,,,0.00,WeatherCatV1.20B785,2013-09-05 07:21:00,
2013-09-05 03:26:00,60.7,59.8,30.08,ESE,115,0.0,0.0,97,0.00,,,0.00,WeatherCatV1.20B785,2013-09-05 07:26:00,
2013-09-05 03:31:00,60.7,59.5,30.08,ESE,115,0.0,0.0,96,0.00,,,0.00,WeatherCatV1.20B785,2013-09-05 07:31:00,
2013-09-05 03:36:00,60.4,59.2,30.09,ESE,115,0.0,0.0,96,0.00,,,0.00,WeatherCatV1.20B785,2013-09-05 07:36:00,
2013-09-05 03:41:00,60.3,59.2,30.08,ESE,115,0.0,0.0,96,0.00,,,0.00,WeatherCatV1.20B785,2013-09-05 07:41:00,
2013-09-05 03:46:00,60.2,59.3,30.08,ESE,115,0.0,0.0,97,0.00,,,0.00,WeatherCatV1.20B785,2013-09-05 07:46:00,
2013-09-05 03:51:00,60.2,59.3,30.08,ESE,115,0.0,0.0,97,0.00,,,0.00,WeatherCatV1.20B785,2013-09-05 07:51:00,
2013-09-05 03:56:00,60.1,59.0,30.09,ESE,115,0.0,0.0,96,0.00,,,0.00,WeatherCatV1.20B785,2013-09-05 07:56:00,
2013-09-05 04:01:00,59.8,58.7,30.09,ESE,115,0.0,0.0,96,0.00,,,0.00,WeatherCatV1.20B785,2013-09-05 08:01:00,
2013-09-05 04:06:00,59.7,58.8,30.09,ESE,115,0.0,0.0,97,0.00,,,0.00,WeatherCatV1.20B785,2013-09-05 08:06:00,
2013-09-05 04:11:00,59.6,58.8,30.09,ESE,115,0.0,0.0,97,0.00,,,0.00,WeatherCatV1.20B785,2013-09-05 08:11:00,
2013-09-05 04:16:00,59.6,58.8,30.08,ESE,115,0.0,0.0,97,0.00,,,0.00,WeatherCatV1.20B785,2013-09-05 08:16:00,
2013-09-05 04:21:00,59.7,58.8,30.08,ESE,115,0.0,0.0,97,0.00,,,0.00,WeatherCatV1.20B785,2013-09-05 08:21:00,
2013-09-05 04:26:00,59.5,58.7,30.08,ESE,115,0.0,0.0,97,0.00,,,0.00,WeatherCatV1.20B785,2013-09-05 08:26:00,
2013-09-05 04:31:00,59.3,58.2,30.08,ESE,115,0.0,0.0,96,0.00,,,0.00,WeatherCatV1.20B785,2013-09-05 08:31:00,
2013-09-05 04:36:00,59.2,58.3,30.08,ESE,115,0.0,0.0,97,0.00,,,0.00,WeatherCatV1.20B785,2013-09-05 08:36:00,
2013-09-05 04:41:00,59.1,58.2,30.08,ESE,115,0.0,0.0,97,0.00,,,0.00,WeatherCatV1.20B785,2013-09-05 08:41:00,
2013-09-05 04:46:00,59.0,58.2,30.08,ESE,115,0.0,0.0,97,0.00,,,0.00,WeatherCatV1.20B785,2013-09-05 08:46:00,
2013-09-05 04:51:00,58.9,58.0,30.08,ESE,115,0.0,0.0,97,0.00,,,0.00,WeatherCatV1.20B785,2013-09-05 08:51:00,
2013-09-05 04:56:00,58.8,58.0,30.08,ESE,115,0.0,0.0,97,0.00,,,0.00,WeatherCatV1.20B785,2013-09-05 08:56:00,
2013-09-05 05:01:00,58.8,58.0,30.08,ESE,115,0.0,0.0,97,0.00,,,0.00,WeatherCatV1.20B785,2013-09-05 09:01:00,
2013-09-05 05:06:00,58.8,58.0,30.09,ESE,114,0.0,0.0,97,0.00,,,0.00,WeatherCatV1.20B785,2013-09-05 09:06:00,
2013-09-05 05:11:00,59.0,58.4,30.09,ESE,115,0.0,0.0,98,0.00,,,0.00,WeatherCatV1.20B785,2013-09-05 09:11:00,
2013-09-05 05:16:00,59.1,58.5,30.09,ESE,114,0.0,0.0,98,0.00,,,0.00,WeatherCatV1.20B785,2013-09-05 09:16:00,
2013-09-05 05:21:00,59.2,58.6,30.09,ESE,115,0.0,0.0,98,0.00,,,0.00,WeatherCatV1.20B785,2013-09-05 09:21:00,
2013-09-05 05:26:00,59.3,58.7,30.09,ESE,114,0.0,0.0,98,0.00,,,0.00,WeatherCatV1.20B785,2013-09-05 09:26:00,
2013-09-05 05:31:00,59.3,58.7,30.09,ESE,115,0.0,0.0,98,0.00,,,0.00,WeatherCatV1.20B785,2013-09-05 09:31:00,
2013-09-05 05:36:00,59.3,58.7,30.09,ESE,115,0.0,0.0,98,0.00,,,0.00,WeatherCatV1.20B785,2013-09-05 09:36:00,
2013-09-05 05:41:00,59.2,58.6,30.09,ESE,114,0.0,0.0,98,0.00,,,0.00,WeatherCatV1.20B785,2013-09-05 09:41:00,
2013-09-05 05:46:00,59.1,58.5,30.09,ESE,115,0.0,0.0,98,0.00,,,0.00,WeatherCatV1.20B785,2013-09-05 09:46:00,
2013-09-05 05:51:00,59.1,58.5,30.09,ESE,115,0.0,0.0,98,0.00,,,0.00,WeatherCatV1.20B785,2013-09-05 09:51:00,
2013-09-05 05:56:00,59.1,58.5,30.09,ESE,115,0.0,0.0,98,0.00,,,0.00,WeatherCatV1.20B785,2013-09-05 09:56:00,
2013-09-05 06:01:00,59.1,58.5,30.09,ESE,115,0.0,0.0,98,0.00,,,0.00,WeatherCatV1.20B785,2013-09-05 10:01:00,
2013-09-05 06:06:00,59.1,58.5,30.09,ESE,115,0.0,0.0,98,0.00,,,0.00,WeatherCatV1.20B785,2013-09-05 10:06:00,
2013-09-05 06:11:00,59.0,58.4,30.09,ESE,115,0.0,0.0,98,0.00,,,0.00,WeatherCatV1.20B785,2013-09-05 10:11:00,
2013-09-05 06:16:00,59.1,58.5,30.10,ESE,115,0.0,0.0,98,0.00,,,0.00,WeatherCatV1.20B785,2013-09-05 10:16:00,
2013-09-05 06:21:00,59.1,58.5,30.10,ESE,115,0.0,0.0,98,0.00,,,0.00,WeatherCatV1.20B785,2013-09-05 10:21:00,
2013-09-05 06:26:00,59.1,58.5,30.10,ESE,114,0.0,0.0,98,0.00,,,0.00,WeatherCatV1.20B785,2013-09-05 10:26:00,
2013-09-05 06:31:00,59.1,58.5,30.10,ESE,114,0.0,0.0,98,0.00,,,0.00,WeatherCatV1.20B785,2013-09-05 10:31:00,
2013-09-05 06:36:00,59.3,58.7,30.10,ESE,115,0.0,0.0,98,0.00,,,0.00,WeatherCatV1.20B785,2013-09-05 10:36:00,
2013-09-05 06:41:00,59.2,58.6,30.11,ESE,114,0.0,0.0,98,0.00,,,0.00,WeatherCatV1.20B785,2013-09-05 10:41:00,
2013-09-05 06:46:00,59.2,58.6,30.10,ESE,115,0.0,0.0,98,0.00,,,0.00,WeatherCatV1.20B785,2013-09-05 10:46:00,
2013-09-05 06:51:00,59.2,58.6,30.11,ESE,114,0.0,0.0,98,0.00,,,0.00,WeatherCatV1.20B785,2013-09-05 10:51:00,
2013-09-05 06:56:00,59.1,58.5,30.11,ESE,114,0.0,0.0,98,0.00,,,0.00,WeatherCatV1.20B785,2013-09-05 10:56:00,
2013-09-05 07:01:00,59.0,58.4,30.11,ESE,115,0.0,0.0,98,0.00,,,0.00,WeatherCatV1.20B785,2013-09-05 11:01:00,
2013-09-05 07:06:00,59.0,58.4,30.11,ESE,115,0.0,0.0,98,0.00,,,0.00,WeatherCatV1.20B785,2013-09-05 11:06:00,
2013-09-05 07:11:00,59.0,58.4,30.11,ESE,115,0.0,0.0,98,0.00,,,0.00,WeatherCatV1.20B785,2013-09-05 11:11:00,
2013-09-05 07:16:00,59.0,58.4,30.11,ESE,114,0.0,0.0,98,0.00,,,0.00,WeatherCatV1.20B785,2013-09-05 11:16:00,
2013-09-05 07:21:00,58.9,58.3,30.12,ESE,114,0.0,0.0,98,0.00,,,0.00,WeatherCatV1.20B785,2013-09-05 11:21:00,
2013-09-05 07:26:00,59.0,58.4,30.12,ESE,115,0.0,0.0,98,0.00,,,0.00,WeatherCatV1.20B785,2013-09-05 11:26:00,
2013-09-05 07:31:00,58.9,58.3,30.12,ESE,115,0.0,0.0,98,0.00,,,0.00,WeatherCatV1.20B785,2013-09-05 11:31:00,
2013-09-05 07:36:00,59.0,58.4,30.12,ESE,115,0.0,0.0,98,0.00,,,0.00,WeatherCatV1.20B785,2013-09-05 11:36:00,
2013-09-05 07:41:00,58.8,58.2,30.12,ESE,114,0.0,0.0,98,0.00,,,0.00,WeatherCatV1.20B785,2013-09-05 11:41:00,
2013-09-05 07:46:00,59.0,58.4,30.12,ESE,114,0.0,0.0,98,0.00,,,0.00,WeatherCatV1.20B785,2013-09-05 11:46:00,
2013-09-05 07:51:00,59.0,58.4,30.12,ESE,115,0.0,0.0,98,0.00,,,0.00,WeatherCatV1.20B785,2013-09-05 11:51:00,
2013-09-05 07:56:00,58.9,58.3,30.12,ESE,115,0.0,0.0,98,0.00,,,0.00,WeatherCatV1.20B785,2013-09-05 11:56:00,
2013-09-05 08:01:00,58.9,58.3,30.12,ESE,114,0.0,0.0,98,0.00,,,0.00,WeatherCatV1.20B785,2013-09-05 12:01:00,
2013-09-05 08:06:00,59.0,58.4,30.12,ESE,114,0.0,0.0,98,0.00,,,0.00,WeatherCatV1.20B785,2013-09-05 12:06:00,
2013-09-05 08:11:00,58.9,58.3,30.12,ESE,115,0.0,0.0,98,0.00,,,0.00,WeatherCatV1.20B785,2013-09-05 12:11:00,
2013-09-05 08:16:00,58.9,58.3,30.13,ESE,115,0.0,0.0,98,0.00,,,0.00,WeatherCatV1.20B785,2013-09-05 12:16:00,
2013-09-05 08:21:00,58.9,58.3,30.13,ESE,115,0.0,0.0,98,0.00,,,0.00,WeatherCatV1.20B785,2013-09-05 12:21:00,
2013-09-05 08:26:00,59.1,58.5,30.13,ESE,115,0.0,0.0,98,0.00,,,0.00,WeatherCatV1.20B785,2013-09-05 12:26:00,
2013-09-05 08:31:00,59.2,58.6,30.13,ESE,115,0.0,0.0,98,0.00,,,0.00,WeatherCatV1.20B785,2013-09-05 12:31:00,
2013-09-05 08:36:00,59.2,58.6,30.13,ESE,115,0.0,0.0,98,0.00,,,0.00,WeatherCatV1.20B785,2013-09-05 12:36:00,
2013-09-05 08:41:00,59.5,58.9,30.12,ESE,115,0.0,0.0,98,0.00,,,0.00,WeatherCatV1.20B785,2013-09-05 12:41:00,
2013-09-05 08:46:00,59.8,59.2,30.13,ESE,115,0.0,0.0,98,0.00,,,0.00,WeatherCatV1.20B785,2013-09-05 12:46:00,
2013-09-05 08:51:00,60.0,59.4,30.13,ESE,115,0.0,0.0,98,0.00,,,0.00,WeatherCatV1.20B785,2013-09-05 12:51:00,
2013-09-05 08:56:00,60.4,59.8,30.13,ESE,115,0.0,0.0,98,0.00,,,0.00,WeatherCatV1.20B785,2013-09-05 12:56:00,
2013-09-05 09:01:00,60.5,59.9,30.13,ESE,115,0.0,0.0,98,0.00,,,0.00,WeatherCatV1.20B785,2013-09-05 13:01:00,
2013-09-05 09:06:00,60.7,60.1,30.13,ESE,115,0.0,0.0,98,0.00,,,0.00,WeatherCatV1.20B785,2013-09-05 13:06:00,
2013-09-05 09:11:00,60.8,60.2,30.13,ESE,115,0.0,0.0,98,0.00,,,0.00,WeatherCatV1.20B785,2013-09-05 13:11:00,
2013-09-05 09:16:00,61.0,60.4,30.13,ESE,115,0.0,0.0,98,0.00,,,0.00,WeatherCatV1.20B785,2013-09-05 13:16:00,
2013-09-05 09:21:00,61.3,60.7,30.13,ESE,115,0.0,0.0,98,0.00,,,0.00,WeatherCatV1.20B785,2013-09-05 13:21:00,
2013-09-05 09:26:00,61.6,61.0,30.13,ESE,115,0.0,1.0,98,0.00,,,0.00,WeatherCatV1.20B785,2013-09-05 13:26:00,
2013-09-05 09:31:00,61.7,60.8,30.13,ESE,115,0.0,0.0,97,0.00,,,0.00,WeatherCatV1.20B785,2013-09-05 13:31:00,
2013-09-05 09:36:00,62.0,61.4,30.13,ESE,115,0.0,0.0,98,0.00,,,0.00,WeatherCatV1.20B785,2013-09-05 13:36:00,
2013-09-05 09:41:00,62.3,61.7,30.13,ESE,115,0.0,0.0,98,0.00,,,0.00,WeatherCatV1.20B785,2013-09-05 13:41:00,
2013-09-05 09:46:00,62.6,61.7,30.13,ESE,115,0.0,0.0,97,0.00,,,0.00,WeatherCatV1.20B785,2013-09-05 13:46:00,
2013-09-05 09:51:00,63.0,62.1,30.13,ESE,115,0.0,0.0,97,0.00,,,0.00,WeatherCatV1.20B785,2013-09-05 13:51:00,
2013-09-05 09:56:00,63.4,62.2,30.13,ESE,115,0.0,0.0,96,0.00,,,0.00,WeatherCatV1.20B785,2013-09-05 13:56:00,
2013-09-05 10:01:00,63.8,62.3,30.13,East,94,0.0,0.0,95,0.00,,,0.00,WeatherCatV1.20B785,2013-09-05 14:01:00,
2013-09-05 10:06:00,64.2,62.4,30.13,East,94,0.0,1.0,94,0.00,,,0.00,WeatherCatV1.20B785,2013-09-05 14:06:00,
2013-09-05 10:11:00,64.4,62.3,30.13,East,97,0.0,0.0,93,0.00,,,0.00,WeatherCatV1.20B785,2013-09-05 14:11:00,
2013-09-05 10:16:00,64.6,62.2,30.13,East,90,0.0,1.0,92,0.00,,,0.00,WeatherCatV1.20B785,2013-09-05 14:16:00,
2013-09-05 10:21:00,64.7,62.3,30.13,East,90,0.0,0.0,92,0.00,,,0.00,WeatherCatV1.20B785,2013-09-05 14:21:00,
2013-09-05 10:26:00,64.9,62.5,30.13,East,90,0.0,0.0,92,0.00,,,0.00,WeatherCatV1.20B785,2013-09-05 14:26:00,
2013-09-05 10:31:00,65.2,63.1,30.13,East,89,0.0,0.0,93,0.00,,,0.00,WeatherCatV1.20B785,2013-09-05 14:31:00,
2013-09-05 10:36:00,65.5,62.8,30.13,East,89,0.0,0.0,91,0.00,,,0.00,WeatherCatV1.20B785,2013-09-05 14:36:00,
2013-09-05 10:41:00,65.8,63.1,30.13,ENE,73,0.0,1.0,91,0.00,,,0.00,WeatherCatV1.20B785,2013-09-05 14:41:00,
2013-09-05 10:46:00,66.1,63.4,30.12,ESE,108,0.0,1.0,91,0.00,,,0.00,WeatherCatV1.20B785,2013-09-05 14:46:00,
2013-09-05 10:51:00,66.3,63.3,30.12,ESE,108,0.0,0.0,90,0.00,,,0.00,WeatherCatV1.20B785,2013-09-05 14:51:00,
2013-09-05 10:56:00,66.6,63.6,30.12,East,86,0.0,0.0,90,0.00,,,0.00,WeatherCatV1.20B785,2013-09-05 14:56:00,
2013-09-05 11:01:00,67.0,63.6,30.12,East,86,0.0,0.0,89,0.00,,,0.00,WeatherCatV1.20B785,2013-09-05 15:01:00,
2013-09-05 11:06:00,67.2,63.5,30.12,ENE,62,0.0,0.0,88,0.00,,,0.00,WeatherCatV1.20B785,2013-09-05 15:06:00,
2013-09-05 11:11:00,67.3,63.6,30.12,ENE,74,0.0,0.0,88,0.00,,,0.00,WeatherCatV1.20B785,2013-09-05 15:11:00,
2013-09-05 11:16:00,67.8,64.1,30.12,NE,42,0.0,2.0,88,0.00,,,0.00,WeatherCatV1.20B785,2013-09-05 15:16:00,
2013-09-05 11:21:00,68.3,63.9,30.12,NE,51,1.0,3.0,86,0.00,,,0.00,WeatherCatV1.20B785,2013-09-05 15:21:00,
2013-09-05 11:26:00,68.7,64.0,30.12,ENE,60,0.0,2.0,85,0.00,,,0.00,WeatherCatV1.20B785,2013-09-05 15:26:00,
2013-09-05 11:31:00,69.1,64.7,30.12,East,84,0.0,0.0,86,0.00,,,0.00,WeatherCatV1.20B785,2013-09-05 15:31:00,
2013-09-05 11:36:00,69.6,64.5,30.12,East,84,0.0,0.0,84,0.00,,,0.00,WeatherCatV1.20B785,2013-09-05 15:36:00,
2013-09-05 11:41:00,70.0,64.2,30.12,NE,44,0.0,2.0,82,0.00,,,0.00,WeatherCatV1.20B785,2013-09-05 15:41:00,
2013-09-05 11:46:00,70.3,64.5,30.12,South,172,0.0,2.0,82,0.00,,,0.00,WeatherCatV1.20B785,2013-09-05 15:46:00,
2013-09-05 11:51:00,70.7,64.6,30.12,SE,131,1.0,1.0,81,0.00,,,0.00,WeatherCatV1.20B785,2013-09-05 15:51:00,
2013-09-05 11:56:00,71.0,64.9,30.12,SE,131,0.0,1.0,81,0.00,,,0.00,WeatherCatV1.20B785,2013-09-05 15:56:00,
2013-09-05 12:01:00,71.4,64.2,30.12,SSE,165,0.0,2.0,78,0.00,,,0.00,WeatherCatV1.20B785,2013-09-05 16:01:00,
2013-09-05 12:06:00,71.8,64.9,30.11,ENE,58,0.0,2.0,79,0.00,,,0.00,WeatherCatV1.20B785,2013-09-05 16:06:00,
2013-09-05 12:11:00,72.4,65.1,30.11,East,92,0.0,1.0,78,0.00,,,0.00,WeatherCatV1.20B785,2013-09-05 16:11:00,
2013-09-05 12:16:00,72.8,65.2,30.11,East,99,0.0,1.0,77,0.00,,,0.00,WeatherCatV1.20B785,2013-09-05 16:16:00,
2013-09-05 12:22:00,73.0,64.2,30.11,ESE,116,0.0,2.0,74,0.00,,,0.00,WeatherCatV1.20B785,2013-09-05 16:22:00,
2013-09-05 12:27:00,73.3,64.9,30.11,ESE,117,0.0,0.0,75,0.00,,,0.00,WeatherCatV1.20B785,2013-09-05 16:27:00,
2013-09-05 12:32:00,73.5,64.7,30.11,SSE,165,1.0,2.0,74,0.00,,,0.00,WeatherCatV1.20B785,2013-09-05 16:32:00,
2013-09-05 12:37:00,73.7,64.5,30.11,SE,146,0.0,2.0,73,0.00,,,0.00,WeatherCatV1.20B785,2013-09-05 16:37:00,
2013-09-05 12:42:00,74.1,64.5,30.11,SE,142,0.0,0.0,72,0.00,,,0.00,WeatherCatV1.20B785,2013-09-05 16:42:00,
2013-09-05 12:47:00,74.5,64.9,30.11,East,101,0.0,0.0,72,0.00,,,0.00,WeatherCatV1.20B785,2013-09-05 16:47:00,
2013-09-05 12:52:00,74.7,64.7,30.11,WNW,285,0.0,1.0,71,0.00,,,0.00,WeatherCatV1.20B785,2013-09-05 16:52:00,
2013-09-05 12:57:00,75.2,63.9,30.11,ESE,108,1.0,2.0,68,0.00,,,0.00,WeatherCatV1.20B785,2013-09-05 16:57:00,
2013-09-05 13:02:00,75.3,63.6,30.11,SSE,160,0.0,2.0,67,0.00,,,0.00,WeatherCatV1.20B785,2013-09-05 17:02:00,
2013-09-05 13:07:00,75.9,64.1,30.11,SSE,147,0.0,2.0,67,0.00,,,0.00,WeatherCatV1.20B785,2013-09-05 17:07:00,
2013-09-05 13:12:00,76.8,63.2,30.10,ENE,57,1.0,2.0,63,0.00,,,0.00,WeatherCatV1.20B785,2013-09-05 17:12:00,
2013-09-05 13:17:00,77.5,63.9,30.10,East,81,0.0,1.0,63,0.00,,,0.00,WeatherCatV1.20B785,2013-09-05 17:17:00,
2013-09-05 13:22:00,77.7,62.7,30.10,NE,40,1.0,2.0,60,0.00,,,0.00,WeatherCatV1.20B785,2013-09-05 17:22:00,
2013-09-05 13:27:00,78.0,63.9,30.10,ESE,121,0.0,2.0,62,0.00,,,0.00,WeatherCatV1.20B785,2013-09-05 17:27:00,
2013-09-05 13:32:00,78.4,62.9,30.10,East,79,0.0,3.0,59,0.00,,,0.00,WeatherCatV1.20B785,2013-09-05 17:32:00,
2013-09-05 13:37:00,78.8,63.2,30.10,East,88,0.0,1.0,59,0.00,,,0.00,WeatherCatV1.20B785,2013-09-05 17:37:00,
2013-09-05 13:42:00,79.2,63.1,30.11,North,2,1.0,2.0,58,0.00,,,0.00,WeatherCatV1.20B785,2013-09-05 17:42:00,
2013-09-05 13:47:00,78.9,63.3,30.11,SE,145,0.0,2.0,59,0.00,,,0.00,WeatherCatV1.20B785,2013-09-05 17:47:00,
2013-09-05 13:52:00,78.8,63.2,30.11,SE,146,0.0,2.0,59,0.00,,,0.00,WeatherCatV1.20B785,2013-09-05 17:52:00,
2013-09-05 13:57:00,78.5,64.4,30.11,East,91,0.0,0.0,62,0.00,,,0.00,WeatherCatV1.20B785,2013-09-05 17:57:00,
2013-09-05 14:02:00,78.7,63.1,30.10,SE,141,1.0,2.0,59,0.00,,,0.00,WeatherCatV1.20B785,2013-09-05 18:02:00,
2013-09-05 14:07:00,78.6,64.5,30.10,East,91,0.0,0.0,62,0.00,,,0.00,WeatherCatV1.20B785,2013-09-05 18:07:00,
2013-09-05 14:12:00,79.6,64.9,30.10,East,93,0.0,2.0,61,0.00,,,0.00,WeatherCatV1.20B785,2013-09-05 18:12:00,
2013-09-05 14:17:00,79.7,64.6,30.10,ESE,121,0.0,1.0,60,0.00,,,0.00,WeatherCatV1.20B785,2013-09-05 18:17:00,
2013-09-05 14:22:00,79.5,63.4,30.10,SE,146,0.0,1.0,58,0.00,,,0.00,WeatherCatV1.20B785,2013-09-05 18:22:00,
2013-09-05 14:27:00,79.0,63.9,30.10,ESE,103,0.0,1.0,60,0.00,,,0.00,WeatherCatV1.20B785,2013-09-05 18:27:00,
2013-09-05 14:32:00,79.2,63.6,30.10,SE,134,1.0,2.0,59,0.00,,,0.00,WeatherCatV1.20B785,2013-09-05 18:32:00,
2013-09-05 14:37:00,79.3,62.2,30.10,East,98,0.0,2.0,56,0.00,,,0.00,WeatherCatV1.20B785,2013-09-05 18:37:00,
2013-09-05 14:42:00,79.3,62.2,30.10,SE,146,2.0,2.0,56,0.00,,,0.00,WeatherCatV1.20B785,2013-09-05 18:42:00,
2013-09-05 14:47:00,79.3,62.7,30.10,East,96,0.0,2.0,57,0.00,,,0.00,WeatherCatV1.20B785,2013-09-05 18:47:00,
2013-09-05 14:52:00,79.7,63.1,30.09,East,101,0.0,2.0,57,0.00,,,0.00,WeatherCatV1.20B785,2013-09-05 18:52:00,
2013-09-05 14:57:00,79.9,62.3,30.09,ESE,121,0.0,1.0,55,0.00,,,0.00,WeatherCatV1.20B785,2013-09-05 18:57:00,
2013-09-05 15:02:00,79.8,62.7,30.09,SSE,160,0.0,1.0,56,0.00,,,0.00,WeatherCatV1.20B785,2013-09-05 19:02:00,
2013-09-05 15:07:00,79.4,62.3,30.09,South,188,0.0,2.0,56,0.00,,,0.00,WeatherCatV1.20B785,2013-09-05 19:07:00,
2013-09-05 15:12:00,78.6,61.1,30.09,SSE,153,0.0,0.0,55,0.00,,,0.00,WeatherCatV1.20B785,2013-09-05 19:12:00,
2013-09-05 15:17:00,79.0,60.9,30.09,WSW,243,0.0,3.0,54,0.00,,,0.00,WeatherCatV1.20B785,2013-09-05 19:17:00,
2013-09-05 15:22:00,79.5,60.8,30.09,SE,142,0.0,2.0,53,0.00,,,0.00,WeatherCatV1.20B785,2013-09-05 19:22:00,
2013-09-05 15:27:00,79.7,61.6,30.09,ENE,60,0.0,2.0,54,0.00,,,0.00,WeatherCatV1.20B785,2013-09-05 19:27:00,
2013-09-05 15:32:00,79.7,60.5,30.09,East,86,1.0,2.0,52,0.00,,,0.00,WeatherCatV1.20B785,2013-09-05 19:32:00,
2013-09-05 15:37:00,79.1,61.0,30.09,WNW,283,1.0,3.0,54,0.00,,,0.00,WeatherCatV1.20B785,2013-09-05 19:37:00,
2013-09-05 15:42:00,79.1,60.5,30.09,NNE,21,1.0,5.0,53,0.00,,,0.00,WeatherCatV1.20B785,2013-09-05 19:42:00,
2013-09-05 15:47:00,79.3,60.7,30.09,ESE,108,0.0,3.0,53,0.00,,,0.00,WeatherCatV1.20B785,2013-09-05 19:47:00,
2013-09-05 15:52:00,79.6,60.4,30.08,WSW,247,3.0,4.0,52,0.00,,,0.00,WeatherCatV1.20B785,2013-09-05 19:52:00,
2013-09-05 15:57:00,79.6,62.0,30.08,WSW,241,1.0,3.0,55,0.00,,,0.00,WeatherCatV1.20B785,2013-09-05 19:57:00,
2013-09-05 16:02:00,79.8,62.2,30.08,East,93,0.0,2.0,55,0.00,,,0.00,WeatherCatV1.20B785,2013-09-05 20:02:00,
2013-09-05 16:07:00,79.7,61.0,30.08,SE,135,0.0,1.0,53,0.00,,,0.00,WeatherCatV1.20B785,2013-09-05 20:07:00,
2013-09-05 16:12:00,80.1,62.5,30.08,ESE,108,0.0,0.0,55,0.00,,,0.00,WeatherCatV1.20B785,2013-09-05 20:12:00,
2013-09-05 16:17:00,80.5,61.8,30.08,ESE,108,0.0,1.0,53,0.00,,,0.00,WeatherCatV1.20B785,2013-09-05 20:17:00,
2013-09-05 16:22:00,80.7,62.5,30.08,SE,125,0.0,2.0,54,0.00,,,0.00,WeatherCatV1.20B785,2013-09-05 20:22:00,
2013-09-05 16:27:00,80.5,61.8,30.08,SSW,205,3.0,3.0,53,0.00,,,0.00,WeatherCatV1.20B785,2013-09-05 20:27:00,
2013-09-05 16:32:00,80.1,62.5,30.08,East,98,0.0,0.0,55,0.00,,,0.00,WeatherCatV1.20B785,2013-09-05 20:32:00,
2013-09-05 16:37:00,80.0,62.4,30.08,East,84,0.0,1.0,55,0.00,,,0.00,WeatherCatV1.20B785,2013-09-05 20:37:00,
2013-09-05 16:42:00,79.7,63.1,30.08,ENE,64,0.0,1.0,57,0.00,,,0.00,WeatherCatV1.20B785,2013-09-05 20:42:00,
2013-09-05 16:47:00,79.7,62.6,30.08,NNW,339,0.0,2.0,56,0.00,,,0.00,WeatherCatV1.20B785,2013-09-05 20:47:00,
2013-09-05 16:52:00,79.7,62.1,30.08,ESE,104,0.0,2.0,55,0.00,,,0.00,WeatherCatV1.20B785,2013-09-05 20:52:00,
2013-09-05 16:57:00,79.4,62.3,30.08,SE,134,0.0,2.0,56,0.00,,,0.00,WeatherCatV1.20B785,2013-09-05 20:57:00,
2013-09-05 17:02:00,79.1,62.5,30.08,NE,46,0.0,5.0,57,0.00,,,0.00,WeatherCatV1.20B785,2013-09-05 21:02:00,
2013-09-05 17:07:00,78.5,62.0,30.08,South,187,0.0,1.0,57,0.00,,,0.00,WeatherCatV1.20B785,2013-09-05 21:07:00,
2013-09-05 17:12:00,77.9,62.9,30.08,ESE,118,0.0,3.0,60,0.00,,,0.00,WeatherCatV1.20B785,2013-09-05 21:12:00,
2013-09-05 17:17:00,77.7,63.2,30.08,ESE,117,1.0,1.0,61,0.00,,,0.00,WeatherCatV1.20B785,2013-09-05 21:17:00,
2013-09-05 17:22:00,77.3,62.3,30.08,East,94,0.0,4.0,60,0.00,,,0.00,WeatherCatV1.20B785,2013-09-05 21:22:00,
2013-09-05 17:27:00,77.1,62.1,30.08,South,189,0.0,2.0,60,0.00,,,0.00,WeatherCatV1.20B785,2013-09-05 21:27:00,
2013-09-05 17:32:00,76.8,62.3,30.08,SE,135,0.0,1.0,61,0.00,,,0.00,WeatherCatV1.20B785,2013-09-05 21:32:00,
2013-09-05 17:37:00,76.7,62.2,30.08,ESE,115,0.0,1.0,61,0.00,,,0.00,WeatherCatV1.20B785,2013-09-05 21:37:00,
2013-09-05 17:42:00,76.6,62.6,30.08,ESE,119,0.0,1.0,62,0.00,,,0.00,WeatherCatV1.20B785,2013-09-05 21:42:00,
2013-09-05 17:47:00,76.4,63.3,30.08,ESE,107,0.0,0.0,64,0.00,,,0.00,WeatherCatV1.20B785,2013-09-05 21:47:00,
2013-09-05 17:52:00,76.6,62.6,30.08,ENE,65,0.0,0.0,62,0.00,,,0.00,WeatherCatV1.20B785,2013-09-05 21:52:00,
2013-09-05 17:57:00,76.4,62.8,30.08,ENE,68,0.0,1.0,63,0.00,,,0.00,WeatherCatV1.20B785,2013-09-05 21:57:00,
2013-09-05 18:02:00,76.2,62.7,30.08,SE,141,0.0,0.0,63,0.00,,,0.00,WeatherCatV1.20B785,2013-09-05 22:02:00,
2013-09-05 18:07:00,76.0,62.5,30.08,ESE,119,0.0,1.0,63,0.00,,,0.00,WeatherCatV1.20B785,2013-09-05 22:07:00,
2013-09-05 18:12:00,75.9,61.9,30.08,SE,127,1.0,1.0,62,0.00,,,0.00,WeatherCatV1.20B785,2013-09-05 22:12:00,
2013-09-05 18:17:00,75.5,60.6,30.08,SE,146,0.0,2.0,60,0.00,,,0.00,WeatherCatV1.20B785,2013-09-05 22:17:00,
2013-09-05 18:22:00,75.3,61.4,30.08,ESE,107,0.0,1.0,62,0.00,,,0.00,WeatherCatV1.20B785,2013-09-05 22:22:00,
2013-09-05 18:27:00,75.0,63.3,30.08,ESE,107,0.0,0.0,67,0.00,,,0.00,WeatherCatV1.20B785,2013-09-05 22:27:00,
2013-09-05 18:32:00,74.7,61.7,30.08,ESE,107,0.0,0.0,64,0.00,,,0.00,WeatherCatV1.20B785,2013-09-05 22:32:00,
2013-09-05 18:37:00,74.2,62.9,30.08,ESE,107,0.0,0.0,68,0.00,,,0.00,WeatherCatV1.20B785,2013-09-05 22:37:00,
2013-09-05 18:42:00,73.5,63.1,30.08,ESE,107,0.0,0.0,70,0.00,,,0.00,WeatherCatV1.20B785,2013-09-05 22:42:00,
2013-09-05 18:47:00,72.8,62.8,30.08,ESE,107,0.0,0.0,71,0.00,,,0.00,WeatherCatV1.20B785,2013-09-05 22:47:00,
2013-09-05 18:52:00,72.7,63.1,30.08,ESE,110,0.0,0.0,72,0.00,,,0.00,WeatherCatV1.20B785,2013-09-05 22:52:00,
2013-09-05 18:57:00,72.4,63.2,30.08,ESE,110,0.0,0.0,73,0.00,,,0.00,WeatherCatV1.20B785,2013-09-05 22:57:00,
2013-09-05 19:02:00,71.8,62.7,30.08,ESE,110,0.0,1.0,73,0.00,,,0.00,WeatherCatV1.20B785,2013-09-05 23:02:00,
2013-09-05 19:07:00,71.6,62.1,30.08,ESE,110,0.0,0.0,72,0.00,,,0.00,WeatherCatV1.20B785,2013-09-05 23:07:00,
2013-09-05 19:12:00,71.2,61.7,30.08,ESE,113,0.0,1.0,72,0.00,,,0.00,WeatherCatV1.20B785,2013-09-05 23:12:00,
2013-09-05 19:17:00,71.1,62.0,30.08,ESE,113,0.0,0.0,73,0.00,,,0.00,WeatherCatV1.20B785,2013-09-05 23:17:00,
2013-09-05 19:22:00,70.8,61.7,30.08,ESE,113,0.0,1.0,73,0.00,,,0.00,WeatherCatV1.20B785,2013-09-05 23:22:00,
2013-09-05 19:27:00,70.5,62.9,30.08,ESE,113,0.0,0.0,77,0.00,,,0.00,WeatherCatV1.20B785,2013-09-05 23:27:00,
2013-09-05 19:32:00,70.0,62.1,30.08,ESE,113,0.0,0.0,76,0.00,,,0.00,WeatherCatV1.20B785,2013-09-05 23:32:00,
2013-09-05 19:37:00,69.6,62.4,30.08,ESE,113,0.0,0.0,78,0.00,,,0.00,WeatherCatV1.20B785,2013-09-05 23:37:00,
2013-09-05 19:42:00,69.3,62.1,30.09,ESE,113,0.0,0.0,78,0.00,,,0.00,WeatherCatV1.20B785,2013-09-05 23:42:00,
2013-09-05 19:47:00,69.0,62.6,30.09,ESE,113,0.0,0.0,80,0.00,,,0.00,WeatherCatV1.20B785,2013-09-05 23:47:00,
2013-09-05 19:52:00,68.7,62.3,30.09,ESE,113,0.0,0.0,80,0.00,,,0.00,WeatherCatV1.20B785,2013-09-05 23:52:00,
2013-09-05 19:57:00,68.3,62.2,30.09,ESE,113,0.0,0.0,81,0.00,,,0.00,WeatherCatV1.20B785,2013-09-05 23:57:00,
2013-09-05 20:02:00,68.0,61.6,30.09,ESE,113,0.0,0.0,80,0.00,,,0.00,WeatherCatV1.20B785,2013-09-06 00:02:00,
2013-09-05 20:07:00,67.7,61.7,30.09,ESE,113,0.0,0.0,81,0.00,,,0.00,WeatherCatV1.20B785,2013-09-06 00:07:00,
2013-09-05 20:12:00,67.4,61.4,30.09,ESE,113,0.0,0.0,81,0.00,,,0.00,WeatherCatV1.20B785,2013-09-06 00:12:00,
2013-09-05 20:17:00,67.2,61.5,30.09,ESE,113,0.0,0.0,82,0.00,,,0.00,WeatherCatV1.20B785,2013-09-06 00:17:00,
2013-09-05 20:22:00,67.0,61.7,30.10,ESE,113,0.0,0.0,83,0.00,,,0.00,WeatherCatV1.20B785,2013-09-06 00:22:00,
2013-09-05 20:27:00,66.8,61.8,30.10,ESE,113,0.0,0.0,84,0.00,,,0.00,WeatherCatV1.20B785,2013-09-06 00:27:00,
2013-09-05 20:32:00,66.6,61.6,30.10,ESE,113,0.0,0.0,84,0.00,,,0.00,WeatherCatV1.20B785,2013-09-06 00:32:00,
2013-09-05 20:37:00,66.4,61.8,30.10,ESE,113,0.0,0.0,85,0.00,,,0.00,WeatherCatV1.20B785,2013-09-06 00:37:00,
2013-09-05 20:42:00,66.3,61.7,30.10,ESE,113,0.0,0.0,85,0.00,,,0.00,WeatherCatV1.20B785,2013-09-06 00:42:00,
2013-09-05 20:47:00,66.2,61.5,30.11,ESE,113,0.0,0.0,85,0.00,,,0.00,WeatherCatV1.20B785,2013-09-06 00:47:00,
2013-09-05 20:52:00,66.0,61.7,30.11,ESE,113,0.0,0.0,86,0.00,,,0.00,WeatherCatV1.20B785,2013-09-06 00:52:00,
2013-09-05 20:57:00,65.9,61.6,30.11,ESE,113,0.0,0.0,86,0.00,,,0.00,WeatherCatV1.20B785,2013-09-06 00:57:00,
2013-09-05 21:02:00,65.8,61.5,30.11,ESE,113,0.0,0.0,86,0.00,,,0.00,WeatherCatV1.20B785,2013-09-06 01:02:00,
2013-09-05 21:07:00,65.7,61.4,30.11,ESE,113,0.0,0.0,86,0.00,,,0.00,WeatherCatV1.20B785,2013-09-06 01:07:00,
2013-09-05 21:12:00,65.6,61.6,30.12,ESE,113,0.0,0.0,87,0.00,,,0.00,WeatherCatV1.20B785,2013-09-06 01:12:00,
2013-09-05 21:17:00,65.5,61.5,30.12,ESE,113,0.0,0.0,87,0.00,,,0.00,WeatherCatV1.20B785,2013-09-06 01:17:00,
2013-09-05 21:22:00,65.5,61.5,30.12,ESE,113,0.0,0.0,87,0.00,,,0.00,WeatherCatV1.20B785,2013-09-06 01:22:00,
2013-09-05 21:27:00,65.5,61.5,30.12,ESE,113,0.0,0.0,87,0.00,,,0.00,WeatherCatV1.20B785,2013-09-06 01:27:00,
2013-09-05 21:32:00,65.3,61.3,30.12,ESE,113,0.0,0.0,87,0.00,,,0.00,WeatherCatV1.20B785,2013-09-06 01:32:00,
2013-09-05 21:37:00,65.0,61.0,30.12,ESE,114,0.0,0.0,87,0.00,,,0.00,WeatherCatV1.20B785,2013-09-06 01:37:00,
2013-09-05 21:42:00,64.8,61.2,30.12,ESE,113,0.0,0.0,88,0.00,,,0.00,WeatherCatV1.20B785,2013-09-06 01:42:00,
2013-09-05 21:47:00,64.7,61.1,30.12,ESE,113,0.0,0.0,88,0.00,,,0.00,WeatherCatV1.20B785,2013-09-06 01:47:00,
2013-09-05 21:52:00,64.4,61.1,30.13,ESE,113,0.0,0.0,89,0.00,,,0.00,WeatherCatV1.20B785,2013-09-06 01:52:00,
2013-09-05 21:57:00,64.1,60.8,30.13,ESE,113,0.0,0.0,89,0.00,,,0.00,WeatherCatV1.20B785,2013-09-06 01:57:00,
2013-09-05 22:02:00,63.8,60.8,30.13,ESE,113,0.0,0.0,90,0.00,,,0.00,WeatherCatV1.20B785,2013-09-06 02:02:00,
2013-09-05 22:07:00,63.5,60.5,30.13,ESE,113,0.0,0.0,90,0.00,,,0.00,WeatherCatV1.20B785,2013-09-06 02:07:00,
2013-09-05 22:12:00,63.2,60.5,30.13,ESE,113,0.0,0.0,91,0.00,,,0.00,WeatherCatV1.20B785,2013-09-06 02:12:00,
2013-09-05 22:17:00,62.9,60.2,30.13,ESE,113,0.0,0.0,91,0.00,,,0.00,WeatherCatV1.20B785,2013-09-06 02:17:00,
2013-09-05 22:22:00,62.6,60.2,30.14,ESE,113,0.0,0.0,92,0.00,,,0.00,WeatherCatV1.20B785,2013-09-06 02:22:00,
2013-09-05 22:27:00,62.5,60.1,30.14,ESE,114,0.0,0.0,92,0.00,,,0.00,WeatherCatV1.20B785,2013-09-06 02:27:00,
2013-09-05 22:32:00,62.3,59.9,30.14,ESE,114,0.0,0.0,92,0.00,,,0.00,WeatherCatV1.20B785,2013-09-06 02:32:00,
2013-09-05 22:37:00,62.2,60.2,30.14,ESE,113,0.0,0.0,93,0.00,,,0.00,WeatherCatV1.20B785,2013-09-06 02:37:00,
2013-09-05 22:42:00,62.0,60.0,30.14,ESE,113,0.0,0.0,93,0.00,,,0.00,WeatherCatV1.20B785,2013-09-06 02:42:00,
2013-09-05 22:47:00,61.8,59.8,30.15,ESE,113,0.0,0.0,93,0.00,,,0.00,WeatherCatV1.20B785,2013-09-06 02:47:00,
2013-09-05 22:52:00,61.6,59.8,30.15,ESE,113,0.0,0.0,94,0.00,,,0.00,WeatherCatV1.20B785,2013-09-06 02:52:00,
2013-09-05 22:57:00,61.4,59.3,30.15,ESE,113,0.0,0.0,93,0.00,,,0.00,WeatherCatV1.20B785,2013-09-06 02:57:00,
2013-09-05 23:02:00,61.1,59.4,30.15,ESE,113,0.0,0.0,94,0.00,,,0.00,WeatherCatV1.20B785,2013-09-06 03:02:00,
2013-09-05 23:07:00,60.8,59.1,30.15,ESE,113,0.0,0.0,94,0.00,,,0.00,WeatherCatV1.20B785,2013-09-06 03:07:00,
2013-09-05 23:12:00,60.7,59.3,30.15,ESE,113,0.0,0.0,95,0.00,,,0.00,WeatherCatV1.20B785,2013-09-06 03:12:00,
2013-09-05 23:17:00,60.7,59.3,30.15,ESE,113,0.0,0.0,95,0.00,,,0.00,WeatherCatV1.20B785,2013-09-06 03:17:00,
2013-09-05 23:22:00,60.5,59.1,30.15,ESE,113,0.0,0.0,95,0.00,,,0.00,WeatherCatV1.20B785,2013-09-06 03:22:00,
2013-09-05 23:27:00,60.5,59.1,30.15,ESE,113,0.0,0.0,95,0.00,,,0.00,WeatherCatV1.20B785,2013-09-06 03:27:00,
2013-09-05 23:32:00,60.6,59.5,30.15,ESE,113,0.0,0.0,96,0.00,,,0.00,WeatherCatV1.20B785,2013-09-06 03:32:00,
2013-09-05 23:37:00,60.5,59.1,30.15,ESE,113,0.0,0.0,95,0.00,,,0.00,WeatherCatV1.20B785,2013-09-06 03:37:00,
2013-09-05 23:42:00,60.3,58.9,30.15,ESE,113,0.0,0.0,95,0.00,,,0.00,WeatherCatV1.20B785,2013-09-06 03:42:00,
2013-09-05 23:47:00,60.2,58.8,30.15,ESE,113,0.0,0.0,95,0.00,,,0.00,WeatherCatV1.20B785,2013-09-06 03:47:00,
2013-09-05 23:52:00,60.3,59.2,30.15,ESE,113,0.0,0.0,96,0.00,,,0.00,WeatherCatV1.20B785,2013-09-06 03:52:00,
2013-09-05 23:57:00,60.3,59.2,30.15,ESE,113,0.0,0.0,96,0.00,,,0.00,WeatherCatV1.20B785,2013-09-06 03:57:00,